Aviation Digital Data Service (ADDS)

Output produced by METARs form (1838 UTC 18 June 2019)
found at http://www.aviationweather.gov/metar/data/
 
SOCA 181830Z AUTO VRB02KT CAVOK 31/25 Q1012 TEMPO 3000 SHRA SCT015TCU
TAF AMD SOCA 181610Z 1816/1912 09008KT 9999 SCT020 BKN033 
     PROB30 
     TEMPO 1816/1912 3000 SHRA SCT015TCU